Time,TemperatureF,DewpointF,PressureIn,WindDirection,WindDirectionDegrees,WindSpeedMPH,WindSpeedGustMPH,Humidity,HourlyPrecipIn,Conditions,Clouds,dailyrainin,SolarRadiationWatts/m^2,SoftwareType,DateUTC
2013-05-19 00:00:00,68.9,65.2,29.95,SW,225,0.0,2.0,88,0.00,,CLR,0.00,0.00,VWS V14.01,2013-05-19 04:00:00,
2013-05-19 00:30:00,68.3,65.6,29.95,SW,225,0.0,0.0,91,0.04,,CLR,0.04,0.00,VWS V14.01,2013-05-19 04:30:00,
2013-05-19 01:00:00,67.9,66.1,29.95,SW,225,0.0,3.0,94,0.04,,CLR,0.04,0.00,VWS V14.01,2013-05-19 05:00:00,
2013-05-19 01:30:00,67.8,66.3,29.95,SW,225,0.0,3.0,95,0.04,,CLR,0.04,0.00,VWS V14.01,2013-05-19 05:30:00,
2013-05-19 02:00:00,67.6,66.1,29.94,SW,225,0.0,0.0,95,0.00,,CLR,0.04,0.00,VWS V14.01,2013-05-19 06:00:00,
2013-05-19 02:30:00,67.9,66.1,29.94,SW,225,0.0,3.0,94,0.00,,CLR,0.04,0.00,VWS V14.01,2013-05-19 06:30:00,
2013-05-19 03:00:00,68.1,66.0,29.94,SW,225,1.0,4.0,93,0.00,,CLR,0.04,0.00,VWS V14.01,2013-05-19 07:00:00,
2013-05-19 03:30:00,67.8,65.7,29.94,SW,225,0.0,4.0,93,0.00,,CLR,0.04,0.00,VWS V14.01,2013-05-19 07:30:00,
2013-05-19 04:00:00,67.9,65.8,29.93,SW,225,1.0,4.0,93,0.01,,CLR,0.05,0.00,VWS V14.01,2013-05-19 08:00:00,
2013-05-19 04:30:00,67.6,65.5,29.92,East,90,2.0,5.0,93,0.01,,CLR,0.05,0.00,VWS V14.01,2013-05-19 08:30:00,
2013-05-19 05:00:00,67.8,66.0,29.93,East,90,0.0,2.0,94,0.01,,CLR,0.05,0.00,VWS V14.01,2013-05-19 09:00:00,
2013-05-19 05:30:00,67.6,65.8,29.93,East,90,1.0,4.0,94,0.00,,CLR,0.05,0.00,VWS V14.01,2013-05-19 09:30:00,
2013-05-19 06:00:00,67.8,66.0,29.93,East,90,1.0,4.0,94,0.00,,CLR,0.05,0.00,VWS V14.01,2013-05-19 10:00:00,
2013-05-19 06:30:00,67.6,65.8,29.93,East,90,1.0,4.0,94,0.00,,CLR,0.05,0.00,VWS V14.01,2013-05-19 10:30:00,
2013-05-19 07:00:00,67.8,66.3,29.94,East,90,0.0,4.0,95,0.00,,CLR,0.05,0.00,VWS V14.01,2013-05-19 11:00:00,
2013-05-19 07:30:00,67.6,66.1,29.94,East,90,1.0,5.0,95,0.01,,CLR,0.06,0.00,VWS V14.01,2013-05-19 11:30:00,
2013-05-19 08:00:00,67.6,66.4,29.96,East,90,0.0,1.0,96,0.01,,CLR,0.06,1.00,VWS V14.01,2013-05-19 12:00:00,
2013-05-19 08:30:00,67.9,66.7,29.98,East,90,0.0,3.0,96,0.01,,CLR,0.06,4.00,VWS V14.01,2013-05-19 12:30:00,
2013-05-19 09:00:00,67.4,66.2,29.99,ESE,112,2.0,10.0,96,0.02,,CLR,0.08,4.00,VWS V14.01,2013-05-19 13:00:00,
2013-05-19 09:30:00,67.1,65.9,29.98,WNW,292,2.0,7.0,96,0.04,,CLR,0.10,75.00,VWS V14.01,2013-05-19 13:30:00,
2013-05-19 10:00:00,67.9,66.4,29.98,NW,315,1.0,5.0,95,0.04,,CLR,0.10,115.00,VWS V14.01,2013-05-19 14:00:00,
2013-05-19 10:30:00,68.8,66.7,29.98,NNW,338,0.0,3.0,93,0.02,,CLR,0.10,162.00,VWS V14.01,2013-05-19 14:30:00,
2013-05-19 11:00:00,69.3,66.6,29.96,NNW,338,0.0,3.0,91,0.00,,CLR,0.10,286.00,VWS V14.01,2013-05-19 15:00:00,
2013-05-19 11:30:00,70.8,66.4,29.97,ENE,68,1.0,5.0,86,0.00,,CLR,0.10,772.00,VWS V14.01,2013-05-19 15:30:00,
2013-05-19 12:00:00,70.9,66.2,29.97,ENE,68,1.0,5.0,85,0.00,,CLR,0.10,227.00,VWS V14.01,2013-05-19 16:00:00,
2013-05-19 12:30:00,70.9,65.8,29.97,SE,135,2.0,6.0,84,0.00,,CLR,0.10,213.00,VWS V14.01,2013-05-19 16:30:00,
2013-05-19 13:00:00,71.3,65.5,29.95,SE,135,5.0,11.0,82,0.00,,CLR,0.10,480.00,VWS V14.01,2013-05-19 17:00:00,
2013-05-19 13:30:00,72.1,65.2,29.97,SE,135,2.0,7.0,79,0.00,,CLR,0.10,387.00,VWS V14.01,2013-05-19 17:30:00,
2013-05-19 14:00:00,72.8,65.9,29.96,SW,225,0.0,3.0,79,0.00,,CLR,0.10,225.00,VWS V14.01,2013-05-19 18:00:00,
2013-05-19 14:30:00,72.1,65.9,29.95,West,270,0.0,4.0,81,0.01,,CLR,0.11,344.00,VWS V14.01,2013-05-19 18:30:00,
2013-05-19 15:00:00,73.0,65.4,29.95,WSW,248,0.0,5.0,77,0.01,,CLR,0.11,342.00,VWS V14.01,2013-05-19 19:00:00,
2013-05-19 15:30:00,73.9,65.9,29.94,SSW,202,0.0,3.0,76,0.01,,CLR,0.11,416.00,VWS V14.01,2013-05-19 19:30:00,
2013-05-19 16:00:00,72.7,66.2,29.94,West,270,1.0,7.0,80,0.00,,CLR,0.11,365.00,VWS V14.01,2013-05-19 20:00:00,
2013-05-19 16:30:00,73.5,65.9,29.93,SSW,202,0.0,4.0,77,0.00,,CLR,0.11,301.00,VWS V14.01,2013-05-19 20:30:00,
2013-05-19 17:00:00,72.7,65.1,29.93,West,270,1.0,7.0,77,0.00,,CLR,0.11,309.00,VWS V14.01,2013-05-19 21:00:00,
2013-05-19 17:30:00,73.5,66.2,29.91,SSE,158,0.0,4.0,78,0.00,,CLR,0.11,273.00,VWS V14.01,2013-05-19 21:30:00,
2013-05-19 18:00:00,73.0,65.4,29.90,West,270,0.0,4.0,77,0.00,,CLR,0.11,269.00,VWS V14.01,2013-05-19 22:00:00,
2013-05-19 18:30:00,73.2,65.9,29.88,SE,135,0.0,5.0,78,0.00,,CLR,0.11,192.00,VWS V14.01,2013-05-19 22:30:00,
2013-05-19 19:00:00,72.7,65.8,29.88,SE,135,2.0,6.0,79,0.00,,CLR,0.11,154.00,VWS V14.01,2013-05-19 23:00:00,
2013-05-19 19:30:00,72.5,65.6,29.88,SE,135,1.0,5.0,79,0.00,,CLR,0.11,120.00,VWS V14.01,2013-05-19 23:30:00,
2013-05-19 20:00:00,72.3,66.2,29.90,SE,135,1.0,5.0,81,0.00,,CLR,0.11,92.00,VWS V14.01,2013-05-20 00:00:00,
2013-05-19 20:30:00,72.1,66.3,29.92,SE,135,0.0,1.0,82,0.00,,CLR,0.11,68.00,VWS V14.01,2013-05-20 00:30:00,
2013-05-19 20:46:00,71.8,66.4,29.92,SE,135,0.0,0.0,83,0.00,,CLR,0.11,21.00,VWS V14.01,2013-05-20 00:46:00,
2013-05-19 20:51:00,70.6,66.9,29.92,SE,144,0.0,0.0,88,0.00,,CLR,0.11,0.00,VWS V14.01,2013-05-20 00:51:00,
2013-05-19 20:56:00,70.3,66.9,29.92,SE,144,0.0,0.0,89,0.00,,CLR,0.11,0.00,VWS V14.01,2013-05-20 00:56:00,
2013-05-19 21:00:00,71.8,66.4,29.92,SE,135,0.0,0.0,83,0.00,,OVC070,0.11,21.00,VWS V14.01,2013-05-20 01:00:00,
2013-05-19 21:01:00,69.9,66.8,29.92,South,177,2.0,3.0,90,0.00,,CLR,0.11,0.00,VWS V14.01,2013-05-20 01:01:00,
2013-05-19 21:06:00,69.8,67.1,29.92,SSW,194,0.0,4.0,91,0.00,,CLR,0.11,0.00,VWS V14.01,2013-05-20 01:06:00,
2013-05-19 21:11:00,69.4,66.7,29.92,SSW,194,0.0,4.0,91,0.00,,CLR,0.11,0.00,VWS V14.01,2013-05-20 01:11:00,
2013-05-19 21:16:00,69.3,66.9,29.92,SSW,194,0.0,4.0,92,0.00,,CLR,0.11,0.00,VWS V14.01,2013-05-20 01:16:00,
2013-05-19 21:21:00,69.1,66.7,29.92,SSW,194,0.0,4.0,92,0.00,,CLR,0.11,0.00,VWS V14.01,2013-05-20 01:21:00,
2013-05-19 21:26:00,68.9,66.8,29.92,SSW,194,0.0,4.0,93,0.00,,CLR,0.11,0.00,VWS V14.01,2013-05-20 01:26:00,
2013-05-19 21:30:00,72.1,66.3,29.92,SE,135,0.0,1.0,82,0.00,,CLR,0.11,68.00,VWS V14.01,2013-05-20 01:30:00,
2013-05-19 21:31:00,68.9,66.8,29.92,SSW,194,0.0,0.0,93,0.00,,CLR,0.11,0.00,VWS V14.01,2013-05-20 01:31:00,
2013-05-19 21:36:00,68.8,66.7,29.92,SSW,194,0.0,0.0,93,0.00,,CLR,0.11,0.00,VWS V14.01,2013-05-20 01:36:00,
2013-05-19 21:41:00,68.8,66.7,29.92,SSW,194,0.0,0.0,93,0.00,,CLR,0.11,0.00,VWS V14.01,2013-05-20 01:41:00,
2013-05-19 21:46:00,68.8,67.0,29.93,SSW,197,0.0,0.0,94,0.00,,CLR,0.11,0.00,VWS V14.01,2013-05-20 01:46:00,
2013-05-19 21:51:00,68.8,67.0,29.93,SSW,197,0.0,1.0,94,0.00,,CLR,0.11,0.00,VWS V14.01,2013-05-20 01:51:00,
2013-05-19 21:56:00,68.8,67.3,29.93,SSW,197,0.0,1.0,95,0.00,,CLR,0.11,0.00,VWS V14.01,2013-05-20 01:56:00,
2013-05-19 22:00:00,69.9,66.8,29.92,South,175,3.0,4.0,90,0.00,,OVC070,0.11,0.00,VWS V14.01,2013-05-20 02:00:00,
2013-05-19 22:01:00,68.4,66.9,29.93,SSW,197,0.0,0.0,95,0.00,,CLR,0.11,0.00,VWS V14.01,2013-05-20 02:01:00,
2013-05-19 22:06:00,68.4,66.9,29.93,SSW,197,0.0,0.0,95,0.00,,CLR,0.11,0.00,VWS V14.01,2013-05-20 02:06:00,
2013-05-19 22:11:00,68.3,66.8,29.93,SSW,197,0.0,0.0,95,0.00,,CLR,0.11,0.00,VWS V14.01,2013-05-20 02:11:00,
2013-05-19 22:16:00,68.1,66.6,29.94,SSW,197,0.0,0.0,95,0.00,,CLR,0.11,0.00,VWS V14.01,2013-05-20 02:16:00,
2013-05-19 22:21:00,68.1,66.6,29.94,SSW,197,0.0,0.0,95,0.00,,CLR,0.11,0.00,VWS V14.01,2013-05-20 02:21:00,
2013-05-19 22:26:00,68.1,66.6,29.94,SSW,197,0.0,0.0,95,0.00,,CLR,0.11,0.00,VWS V14.01,2013-05-20 02:26:00,
2013-05-19 22:30:00,68.9,66.8,29.92,SSW,194,0.0,4.0,93,0.00,,OVC070,0.11,0.00,VWS V14.01,2013-05-20 02:30:00,
2013-05-19 22:31:00,68.1,66.9,29.94,SSW,197,0.0,0.0,96,0.00,,CLR,0.11,0.00,VWS V14.01,2013-05-20 02:31:00,
2013-05-19 22:36:00,67.9,66.7,29.94,SSW,196,0.0,0.0,96,0.00,,CLR,0.11,0.00,VWS V14.01,2013-05-20 02:36:00,
2013-05-19 22:41:00,67.8,66.6,29.94,SSW,197,0.0,0.0,96,0.00,,CLR,0.11,0.00,VWS V14.01,2013-05-20 02:41:00,
2013-05-19 22:46:00,67.9,66.7,29.94,SSW,197,0.0,0.0,96,0.00,,CLR,0.11,0.00,VWS V14.01,2013-05-20 02:46:00,
2013-05-19 22:51:00,67.8,66.6,29.94,SSW,196,0.0,0.0,96,0.00,,CLR,0.11,0.00,VWS V14.01,2013-05-20 02:51:00,
2013-05-19 22:56:00,67.9,66.7,29.94,SSW,197,0.0,0.0,96,0.00,,CLR,0.11,0.00,VWS V14.01,2013-05-20 02:56:00,
2013-05-19 23:00:00,68.4,66.6,29.93,SSW,197,0.0,1.0,94,0.00,,OVC070,0.11,0.00,VWS V14.01,2013-05-20 03:00:00,
2013-05-19 23:01:00,67.8,66.6,29.94,SSW,197,0.0,0.0,96,0.00,,,0.00,0.00,VWS V14.01,2013-05-20 03:01:00,
2013-05-19 23:06:00,67.8,66.6,29.94,SSW,197,0.0,0.0,96,0.00,,,0.00,0.00,VWS V14.01,2013-05-20 03:06:00,
2013-05-19 23:11:00,67.8,66.6,29.94,SSW,196,0.0,0.0,96,0.00,,,0.00,0.00,VWS V14.01,2013-05-20 03:11:00,
2013-05-19 23:16:00,67.8,66.9,29.95,SSW,197,0.0,0.0,97,0.00,,,0.00,0.00,VWS V14.01,2013-05-20 03:16:00,
2013-05-19 23:21:00,67.9,67.0,29.95,SSW,197,0.0,0.0,97,0.00,,,0.00,0.00,VWS V14.01,2013-05-20 03:21:00,
2013-05-19 23:26:00,67.9,67.0,29.95,SSW,196,0.0,0.0,97,0.00,,,0.00,0.00,VWS V14.01,2013-05-20 03:26:00,
2013-05-19 23:30:00,68.1,66.9,29.94,SSW,196,0.0,0.0,96,0.00,,OVC070,0.11,0.00,VWS V14.01,2013-05-20 03:30:00,
2013-05-19 23:31:00,67.9,67.0,29.94,SSW,197,0.0,0.0,97,0.00,,,0.00,0.00,VWS V14.01,2013-05-20 03:31:00,
2013-05-19 23:36:00,67.9,67.0,29.94,SSW,197,0.0,0.0,97,0.00,,,0.00,0.00,VWS V14.01,2013-05-20 03:36:00,
2013-05-19 23:41:00,67.9,67.0,29.94,SSW,196,0.0,0.0,97,0.00,,,0.00,0.00,VWS V14.01,2013-05-20 03:41:00,
2013-05-19 23:46:00,68.1,67.2,29.94,SSW,197,0.0,0.0,97,0.00,,,0.00,0.00,VWS V14.01,2013-05-20 03:46:00,
2013-05-19 23:51:00,68.3,67.4,29.94,SSW,196,0.0,0.0,97,0.00,,,0.00,0.00,VWS V14.01,2013-05-20 03:51:00,
2013-05-19 23:56:00,68.1,67.2,29.94,SSW,197,0.0,0.0,97,0.00,,,0.00,0.00,VWS V14.01,2013-05-20 03:56:00,